createdAt,value
2023-01-29T00:04:28.783Z,0.50
2023-01-29T00:06:56.544Z,0.50
2023-01-29T00:09:24.363Z,0.50
2023-01-29T00:11:52.168Z,0.50
2023-01-29T00:14:20.804Z,0.50
2023-01-29T00:16:48.634Z,0.40
2023-01-29T00:19:17.478Z,0.40
2023-01-29T00:21:46.876Z,0.40
2023-01-29T00:24:14.725Z,0.50
2023-01-29T00:26:43.085Z,0.50
2023-01-29T00:29:10.907Z,0.40
2023-01-29T00:31:38.795Z,0.50
2023-01-29T00:34:06.623Z,0.40
2023-01-29T00:36:34.378Z,0.50
2023-01-29T00:39:10.982Z,0.40
2023-01-29T00:41:56.740Z,0.30
2023-01-29T00:44:38.459Z,0.30
2023-01-29T00:47:27.883Z,0.20
2023-01-29T00:49:55.814Z,0.20
2023-01-29T00:52:26.287Z,0.30
2023-01-29T00:54:56.467Z,0.30
2023-01-29T00:57:24.620Z,0.40
2023-01-29T00:59:52.436Z,0.40
2023-01-29T01:02:38.322Z,0.40
2023-01-29T01:05:07.758Z,0.40
2023-01-29T01:07:35.539Z,0.50
2023-01-29T01:10:22.841Z,0.50
2023-01-29T01:12:54.081Z,0.40
2023-01-29T01:15:22.618Z,0.50
2023-01-29T01:17:53.625Z,0.40
2023-01-29T01:20:21.758Z,0.50
2023-01-29T01:22:49.631Z,0.50
2023-01-29T01:25:18.869Z,0.40
2023-01-29T01:27:46.962Z,0.40
2023-01-29T01:30:16.951Z,0.40
2023-01-29T01:32:44.998Z,0.30
2023-01-29T01:35:14.727Z,0.40
2023-01-29T01:37:42.779Z,0.40
2023-01-29T01:40:18.090Z,0.50
2023-01-29T01:42:50.170Z,0.50
2023-01-29T01:45:24.123Z,0.40
2023-01-29T01:47:55.295Z,0.50
2023-01-29T01:50:30.395Z,0.50
2023-01-29T01:53:02.249Z,0.40
2023-01-29T01:55:34.153Z,0.40
2023-01-29T01:58:09.548Z,0.40
2023-01-29T02:00:37.561Z,0.40
2023-01-29T02:03:24.372Z,0.50
2023-01-29T02:06:12.119Z,0.50
2023-01-29T02:09:06.181Z,0.50
2023-01-29T02:11:34.016Z,0.50
2023-01-29T02:14:03.509Z,0.50
2023-01-29T02:16:32.197Z,0.40
2023-01-29T02:19:00.201Z,0.50
2023-01-29T02:21:54.762Z,0.50
2023-01-29T02:24:51.587Z,0.50
2023-01-29T02:27:22.391Z,0.40
2023-01-29T02:30:01.534Z,0.40
2023-01-29T02:32:35.048Z,0.50
2023-01-29T02:35:28.580Z,0.50
2023-01-29T02:38:02.759Z,0.50
2023-01-29T02:40:34.262Z,0.60
2023-01-29T02:43:13.406Z,0.70
2023-01-29T02:45:48.398Z,0.80
2023-01-29T02:48:21.454Z,0.60
2023-01-29T02:50:57.880Z,0.60
2023-01-29T02:53:33.478Z,0.60
2023-01-29T02:56:08.399Z,0.60
2023-01-29T02:58:42.563Z,0.60
2023-01-29T03:01:16.891Z,0.70
2023-01-29T03:03:49.772Z,0.60
2023-01-29T03:06:22.316Z,0.60
2023-01-29T03:08:55.445Z,0.60
2023-01-29T03:11:23.471Z,0.50
2023-01-29T03:13:54.457Z,0.50
2023-01-29T03:16:30.985Z,0.50
2023-01-29T03:19:03.828Z,0.50
2023-01-29T03:21:53.111Z,0.50
2023-01-29T03:24:43.450Z,0.30
2023-01-29T03:27:33.422Z,0.40
2023-01-29T03:30:20.330Z,0.30
2023-01-29T03:32:51.878Z,0.40
2023-01-29T03:35:36.378Z,0.50
2023-01-29T03:38:05.363Z,0.50
2023-01-29T03:40:41.542Z,0.50
2023-01-29T03:43:14.158Z,0.40
2023-01-29T03:45:56.174Z,0.40
2023-01-29T03:48:32.386Z,0.50
2023-01-29T03:51:08.572Z,0.50
2023-01-29T03:53:44.871Z,0.50
2023-01-29T03:56:27.084Z,0.50
2023-01-29T03:59:00.436Z,0.50
2023-01-29T04:01:32.717Z,0.60
2023-01-29T04:04:07.253Z,0.60
2023-01-29T04:06:38.287Z,0.60
2023-01-29T04:09:11.601Z,0.50
2023-01-29T04:11:44.336Z,0.50
2023-01-29T04:14:13.155Z,0.50
2023-01-29T04:16:45.350Z,0.40
2023-01-29T04:19:14.633Z,0.50
2023-01-29T04:21:42.990Z,0.50
2023-01-29T04:24:13.291Z,0.60
2023-01-29T04:26:56.090Z,0.60
2023-01-29T04:29:37.977Z,0.70
2023-01-29T04:32:15.247Z,0.70
2023-01-29T04:35:00.564Z,0.60
2023-01-29T04:37:37.456Z,0.70
2023-01-29T04:40:16.156Z,0.70
2023-01-29T04:42:52.126Z,0.70
2023-01-29T04:45:28.727Z,0.70
2023-01-29T04:48:05.205Z,0.70
2023-01-29T04:50:40.460Z,0.70
2023-01-29T04:53:16.568Z,0.50
2023-01-29T04:55:50.747Z,0.50
2023-01-29T04:58:26.633Z,0.30
2023-01-29T05:00:55.730Z,0.40
2023-01-29T05:03:26.727Z,0.30
2023-01-29T05:05:58.802Z,0.40
2023-01-29T05:08:29.257Z,0.40
2023-01-29T05:10:59.767Z,0.50
2023-01-29T05:13:29.796Z,0.50
2023-01-29T05:16:02.779Z,0.60
2023-01-29T05:18:31.553Z,0.60
2023-01-29T05:21:05.536Z,0.40
2023-01-29T05:23:33.343Z,0.50
2023-01-29T05:26:01.160Z,0.50
2023-01-29T05:28:27.964Z,0.30
2023-01-29T05:30:57.357Z,0.40
2023-01-29T05:33:27.556Z,0.40
2023-01-29T05:35:55.646Z,0.40
2023-01-29T05:38:24.828Z,0.50
2023-01-29T05:40:53.950Z,0.30
2023-01-29T05:43:23.187Z,0.30
2023-01-29T05:45:55.381Z,0.30
2023-01-29T05:48:23.594Z,0.20
2023-01-29T05:50:51.575Z,0.30
2023-01-29T05:53:19.368Z,0.30
2023-01-29T05:55:49.008Z,0.20
2023-01-29T05:58:17.464Z,0.30
2023-01-29T06:00:45.221Z,0.30
2023-01-29T06:03:13.090Z,0.40
2023-01-29T06:05:41.289Z,0.20
2023-01-29T06:08:09.647Z,0.30
2023-01-29T06:10:37.701Z,0.20
2023-01-29T06:13:06.925Z,0.30
2023-01-29T06:15:34.747Z,0.30
2023-01-29T06:18:02.526Z,0.20
2023-01-29T06:20:30.285Z,0.40
2023-01-29T06:22:58.015Z,0.30
2023-01-29T06:25:25.803Z,0.30
2023-01-29T06:27:53.607Z,0.30
2023-01-29T06:30:22.991Z,0.10
2023-01-29T06:32:51.259Z,0.20
2023-01-29T06:35:19.024Z,0.20
2023-01-29T06:37:46.778Z,0.20
2023-01-29T06:40:15.254Z,0.20
2023-01-29T06:42:45.888Z,0.10
2023-01-29T06:45:13.894Z,0.10
2023-01-29T06:47:43.067Z,0.20
2023-01-29T06:50:12.247Z,0.30
2023-01-29T06:52:40.047Z,0.30
2023-01-29T06:55:08.751Z,0.40
2023-01-29T06:57:36.579Z,0.40
2023-01-29T07:00:06.128Z,0.30
2023-01-29T07:02:33.974Z,0.20
2023-01-29T07:05:03.108Z,0.30
2023-01-29T07:07:30.929Z,0.30
2023-01-29T07:09:58.726Z,0.20
2023-01-29T07:12:26.541Z,0.30
2023-01-29T07:14:54.319Z,0.40
2023-01-29T07:17:22.106Z,0.40
2023-01-29T07:19:49.850Z,0.40
2023-01-29T07:22:18.979Z,0.40
2023-01-29T07:24:48.291Z,0.40
2023-01-29T07:27:16.076Z,0.40
2023-01-29T07:29:43.829Z,0.50
2023-01-29T07:32:11.656Z,0.50
2023-01-29T07:34:39.530Z,0.50
2023-01-29T07:37:07.367Z,0.50
2023-01-29T07:39:36.817Z,0.60
2023-01-29T07:42:04.902Z,0.60
2023-01-29T07:44:32.666Z,0.60
2023-01-29T07:47:00.439Z,0.70
2023-01-29T07:49:28.207Z,0.70
2023-01-29T07:51:56.148Z,0.70
2023-01-29T07:54:23.996Z,0.70
2023-01-29T07:56:53.192Z,0.90
2023-01-29T07:59:21.072Z,0.80
2023-01-29T08:01:48.895Z,0.90
2023-01-29T08:04:16.639Z,0.90
2023-01-29T08:06:44.445Z,0.90
2023-01-29T08:09:12.261Z,0.90
2023-01-29T08:11:40.203Z,0.90
2023-01-29T08:14:10.479Z,0.90
2023-01-29T08:16:38.319Z,0.90
2023-01-29T08:19:06.143Z,1.00
2023-01-29T08:21:33.917Z,1.00
2023-01-29T08:26:34.560Z,1.20
2023-01-29T08:29:02.364Z,1.10
2023-01-29T08:31:31.583Z,1.10
2023-01-29T08:33:59.662Z,1.10
2023-01-29T08:36:27.482Z,1.00
2023-01-29T08:38:55.272Z,1.10
2023-01-29T08:41:23.142Z,1.10
2023-01-29T08:43:51.199Z,1.10
2023-01-29T08:46:19.051Z,1.10
2023-01-29T08:48:48.214Z,1.10
2023-01-29T08:51:16.526Z,1.00
2023-01-29T08:53:44.280Z,1.10
2023-01-29T08:56:12.111Z,1.10
2023-01-29T08:58:40.039Z,1.10
2023-01-29T09:01:08.807Z,1.10
2023-01-29T09:03:37.011Z,1.00
2023-01-29T09:06:06.442Z,0.90
2023-01-29T09:08:34.353Z,0.90
2023-01-29T09:11:02.180Z,0.90
2023-01-29T09:13:30.282Z,0.90
2023-01-29T09:16:00.462Z,0.90
2023-01-29T09:18:28.784Z,0.80
2023-01-29T09:20:56.570Z,0.90
2023-01-29T09:23:26.081Z,1.10
2023-01-29T09:25:53.858Z,1.00
2023-01-29T09:28:21.706Z,1.00
2023-01-29T09:30:49.635Z,1.10
2023-01-29T09:33:18.228Z,0.80
2023-01-29T09:35:47.047Z,0.80
2023-01-29T09:38:15.184Z,0.70
2023-01-29T09:40:55.800Z,0.90
2023-01-29T09:43:28.831Z,0.80
2023-01-29T09:46:02.968Z,0.80
2023-01-29T09:48:34.666Z,0.70
2023-01-29T09:51:07.003Z,0.70
2023-01-29T09:53:40.579Z,0.60
2023-01-29T09:56:13.640Z,0.70
2023-01-29T09:58:44.036Z,0.60
2023-01-29T10:01:17.519Z,0.90
2023-01-29T10:04:00.784Z,0.90
2023-01-29T10:06:41.432Z,1.00
2023-01-29T10:09:40.784Z,1.00
2023-01-29T10:12:31.855Z,1.10
2023-01-29T10:15:06.162Z,1.20
2023-01-29T10:17:55.506Z,1.00
2023-01-29T10:20:47.354Z,0.80
2023-01-29T10:23:22.860Z,1.00
2023-01-29T10:25:51.027Z,1.00
2023-01-29T10:28:23.953Z,1.10
2023-01-29T10:30:57.046Z,1.10
2023-01-29T10:33:39.084Z,1.00
2023-01-29T10:36:18.072Z,1.00
2023-01-29T10:38:48.005Z,1.10
2023-01-29T10:41:27.689Z,1.10
2023-01-29T10:44:08.007Z,1.10
2023-01-29T10:46:49.327Z,1.20
2023-01-29T10:49:35.381Z,1.00
2023-01-29T10:52:16.399Z,1.00
2023-01-29T10:54:58.295Z,1.10
2023-01-29T10:57:40.320Z,1.20
2023-01-29T11:00:15.133Z,1.10
2023-01-29T11:02:48.245Z,1.20
2023-01-29T11:05:24.207Z,1.10
2023-01-29T11:08:01.807Z,1.10
2023-01-29T11:10:32.421Z,1.10
2023-01-29T11:13:00.799Z,1.20
2023-01-29T11:15:33.732Z,1.30
2023-01-29T11:18:10.270Z,1.30
2023-01-29T11:20:38.127Z,1.20
2023-01-29T11:23:07.629Z,1.30
2023-01-29T11:25:35.783Z,1.40
2023-01-29T11:28:05.253Z,1.30
2023-01-29T11:30:38.241Z,1.40
2023-01-29T11:33:18.394Z,1.30
2023-01-29T11:35:46.757Z,1.20
2023-01-29T11:38:24.821Z,1.30
2023-01-29T11:40:53.681Z,1.40
2023-01-29T11:43:24.307Z,1.50
2023-01-29T11:45:56.163Z,1.50
2023-01-29T11:48:31.188Z,1.60
2023-01-29T11:51:01.357Z,1.70
2023-01-29T11:53:37.701Z,1.80
2023-01-29T11:56:15.982Z,1.80
2023-01-29T11:58:44.298Z,1.90
2023-01-29T12:01:16.507Z,1.90
2023-01-29T12:03:48.906Z,1.70
2023-01-29T12:06:21.077Z,1.90
2023-01-29T12:08:57.854Z,1.80
2023-01-29T12:11:28.861Z,1.80
2023-01-29T12:13:58.572Z,1.90
2023-01-29T12:16:31.957Z,2.00
2023-01-29T12:19:11.114Z,1.90
2023-01-29T12:21:47.080Z,1.80
2023-01-29T12:24:27.035Z,1.70
2023-01-29T12:27:01.798Z,1.70
2023-01-29T12:29:38.479Z,1.80
2023-01-29T12:32:18.124Z,1.80
2023-01-29T12:34:49.305Z,1.40
2023-01-29T12:37:23.423Z,1.30
2023-01-29T12:39:52.945Z,1.20
2023-01-29T12:42:22.677Z,1.30
2023-01-29T12:44:54.072Z,1.10
2023-01-29T12:47:27.854Z,0.90
2023-01-29T12:49:58.727Z,1.00
2023-01-29T12:52:38.890Z,1.20
2023-01-29T12:55:13.400Z,1.30
2023-01-29T12:57:47.035Z,1.40
2023-01-29T13:00:20.091Z,1.50
2023-01-29T13:02:56.377Z,1.60
2023-01-29T13:05:27.283Z,1.60
2023-01-29T13:08:02.282Z,1.70
2023-01-29T13:10:34.028Z,1.70
2023-01-29T13:13:06.371Z,1.70
2023-01-29T13:15:37.832Z,1.50
2023-01-29T13:18:31.111Z,1.60
2023-01-29T13:21:00.472Z,1.70
2023-01-29T13:23:34.967Z,1.70
2023-01-29T13:26:03.596Z,1.70
2023-01-29T13:28:31.975Z,1.70
2023-01-29T13:31:14.241Z,1.60
2023-01-29T13:33:45.741Z,1.30
2023-01-29T13:36:18.982Z,1.30
2023-01-29T13:38:47.053Z,1.30
2023-01-29T13:41:15.658Z,1.30
2023-01-29T13:43:49.407Z,1.30
2023-01-29T13:46:21.223Z,1.40
2023-01-29T13:48:54.453Z,1.40
2023-01-29T13:51:26.586Z,1.50
2023-01-29T13:53:58.000Z,1.50
2023-01-29T13:56:45.338Z,1.60
2023-01-29T13:59:46.235Z,1.50
2023-01-29T14:02:27.551Z,1.70
2023-01-29T14:05:28.841Z,1.80
2023-01-29T14:07:59.151Z,1.80
2023-01-29T14:10:28.604Z,1.60
2023-01-29T14:13:18.708Z,1.50
2023-01-29T14:16:26.046Z,1.50
2023-01-29T14:18:58.974Z,1.40
2023-01-29T14:21:31.653Z,1.30
2023-01-29T14:24:08.969Z,1.20
2023-01-29T14:26:45.324Z,1.30
2023-01-29T14:29:33.851Z,1.30
2023-01-29T14:32:14.742Z,1.30
2023-01-29T14:34:47.562Z,1.30
2023-01-29T14:37:23.376Z,1.20
2023-01-29T14:39:54.066Z,1.20
2023-01-29T14:42:25.594Z,1.10
2023-01-29T14:45:08.370Z,1.10
2023-01-29T14:48:00.728Z,0.90
2023-01-29T14:50:53.958Z,0.80
2023-01-29T14:53:30.996Z,0.90
2023-01-29T14:56:03.004Z,1.00
2023-01-29T14:58:38.348Z,1.10
2023-01-29T15:01:15.805Z,1.10
2023-01-29T15:03:48.788Z,1.10
2023-01-29T15:06:20.987Z,1.10
2023-01-29T15:08:55.023Z,1.10
2023-01-29T15:11:36.884Z,1.00
2023-01-29T15:14:17.937Z,1.00
2023-01-29T15:16:58.632Z,0.90
2023-01-29T15:19:33.083Z,0.90
2023-01-29T15:22:09.493Z,0.80
2023-01-29T15:24:37.982Z,0.90
2023-01-29T15:27:07.871Z,1.00
2023-01-29T15:29:36.654Z,1.00
2023-01-29T15:32:04.668Z,0.90
2023-01-29T15:34:34.371Z,0.90
2023-01-29T15:37:03.032Z,0.90
2023-01-29T15:39:31.624Z,0.90
2023-01-29T15:42:12.561Z,1.00
2023-01-29T15:44:46.796Z,1.00
2023-01-29T15:47:15.533Z,0.80
2023-01-29T15:49:47.556Z,0.90
2023-01-29T15:52:19.626Z,0.70
2023-01-29T15:54:48.038Z,0.50
2023-01-29T15:57:23.350Z,0.30
2023-01-29T15:59:53.115Z,0.40
2023-01-29T16:02:33.797Z,0.40
2023-01-29T16:05:04.342Z,0.40
2023-01-29T16:07:33.163Z,0.40
2023-01-29T16:10:01.634Z,0.30
2023-01-29T16:12:29.845Z,0.40
2023-01-29T16:14:58.116Z,0.40
2023-01-29T16:17:28.862Z,0.40
2023-01-29T16:19:57.482Z,0.50
2023-01-29T16:22:27.716Z,0.50
2023-01-29T16:24:56.075Z,0.50
2023-01-29T16:27:26.074Z,0.30
2023-01-29T16:29:54.084Z,0.20
2023-01-29T16:32:21.999Z,0.20
2023-01-29T16:34:52.374Z,0.30
2023-01-29T16:37:24.683Z,0.20
2023-01-29T16:39:54.019Z,0.40
2023-01-29T16:42:24.746Z,0.40
2023-01-29T16:45:00.956Z,0.40
2023-01-29T16:47:32.371Z,0.50
2023-01-29T16:50:02.158Z,0.30
2023-01-29T16:52:32.260Z,0.30
2023-01-29T16:55:18.568Z,0.30
2023-01-29T16:57:52.912Z,0.30
2023-01-29T17:00:25.147Z,0.30
2023-01-29T17:02:56.099Z,0.30
2023-01-29T17:05:29.114Z,0.20
2023-01-29T17:07:58.856Z,0.40
2023-01-29T17:10:29.996Z,0.30
2023-01-29T17:13:00.136Z,0.40
2023-01-29T17:15:37.361Z,0.40
2023-01-29T17:18:12.883Z,0.40
2023-01-29T17:20:40.684Z,0.30
2023-01-29T17:23:08.458Z,0.40
2023-01-29T17:25:37.809Z,0.40
2023-01-29T17:28:06.042Z,0.40
2023-01-29T17:30:37.143Z,0.40
2023-01-29T17:33:12.647Z,0.50
2023-01-29T17:35:42.103Z,0.50
2023-01-29T17:38:24.962Z,0.50
2023-01-29T17:40:57.541Z,0.40
2023-01-29T17:43:25.520Z,0.40
2023-01-29T17:45:53.373Z,0.50
2023-01-29T17:48:23.963Z,0.30
2023-01-29T17:50:54.088Z,0.20
2023-01-29T17:53:24.812Z,0.20
2023-01-29T17:55:55.644Z,0.30
2023-01-29T17:58:26.000Z,0.40
2023-01-29T18:00:54.960Z,0.40
2023-01-29T18:03:23.423Z,0.40
2023-01-29T18:05:51.750Z,0.50
2023-01-29T18:08:21.679Z,0.50
2023-01-29T18:10:49.519Z,0.50
2023-01-29T18:13:18.683Z,0.60
2023-01-29T18:15:46.753Z,0.60
2023-01-29T18:18:16.612Z,0.40
2023-01-29T18:20:45.049Z,0.40
2023-01-29T18:23:13.474Z,0.30
2023-01-29T18:25:41.746Z,0.10
2023-01-29T18:28:15.471Z,0.20
2023-01-29T18:30:46.744Z,0.20
2023-01-29T18:33:15.299Z,0.30
2023-01-29T18:35:44.747Z,0.10
2023-01-29T18:38:12.815Z,0.20
2023-01-29T18:40:41.328Z,0.30
2023-01-29T18:43:09.383Z,0.30
2023-01-29T18:45:37.333Z,0.20
2023-01-29T18:48:07.190Z,0.20
2023-01-29T18:50:35.764Z,0.10
2023-01-29T18:53:04.280Z,0.20
2023-01-29T18:55:32.283Z,0.20
2023-01-29T18:58:26.830Z,0.20
2023-01-29T19:00:49.781Z,0.00
2023-01-29T19:03:19.237Z,0.10
2023-01-29T19:05:47.070Z,0.10
2023-01-29T19:08:15.292Z,0.20
2023-01-29T19:10:43.118Z,0.10
2023-01-29T19:13:10.951Z,0.10
2023-01-29T19:15:43.751Z,0.10
2023-01-29T19:18:14.727Z,0.10
2023-01-29T19:20:44.047Z,0.00
2023-01-29T19:23:11.870Z,0.00
2023-01-29T19:25:40.555Z,0.00
2023-01-29T19:28:08.961Z,-0.10
2023-01-29T19:30:36.899Z,-0.10
2023-01-29T19:33:05.481Z,-0.10
2023-01-29T19:35:33.957Z,-0.20
2023-01-29T19:38:03.104Z,-0.20
2023-01-29T19:40:30.966Z,-0.30
2023-01-29T19:42:59.352Z,-0.30
2023-01-29T19:45:49.088Z,-0.40
2023-01-29T19:48:15.800Z,-0.40
2023-01-29T19:50:43.716Z,-0.50
2023-01-29T19:53:12.891Z,-0.50
2023-01-29T19:55:42.764Z,-0.50
2023-01-29T19:58:10.807Z,-0.50
2023-01-29T20:00:38.695Z,-0.60
2023-01-29T20:03:06.584Z,-0.50
2023-01-29T20:05:37.344Z,-0.60
2023-01-29T20:08:05.417Z,-0.60
2023-01-29T20:10:34.847Z,-0.60
2023-01-29T20:13:02.846Z,-0.60
2023-01-29T20:15:30.688Z,-0.60
2023-01-29T20:17:58.921Z,-0.70
2023-01-29T20:20:27.651Z,-0.70
2023-01-29T20:23:01.338Z,-0.70
2023-01-29T20:25:29.093Z,-0.70
2023-01-29T20:27:58.196Z,-0.70
2023-01-29T20:30:26.075Z,-0.80
2023-01-29T20:32:53.870Z,-0.80
2023-01-29T20:35:21.627Z,-0.90
2023-01-29T20:37:49.436Z,-0.90
2023-01-29T20:40:17.751Z,-0.90
2023-01-29T20:42:45.718Z,-0.90
2023-01-29T20:45:15.223Z,-0.90
2023-01-29T20:47:43.059Z,-0.90
2023-01-29T20:50:12.616Z,-0.90
2023-01-29T20:52:42.260Z,-1.00
2023-01-29T20:55:12.656Z,-1.00
2023-01-29T20:57:40.755Z,-1.00
2023-01-29T21:00:10.343Z,-1.10
2023-01-29T21:02:40.092Z,-1.20
2023-01-29T21:05:08.558Z,-1.30
2023-01-29T21:07:37.012Z,-1.30
2023-01-29T21:10:05.205Z,-1.20
2023-01-29T21:12:32.960Z,-1.30
2023-01-29T21:15:01.011Z,-1.40
2023-01-29T21:17:28.875Z,-1.30
2023-01-29T21:19:58.003Z,-1.40
2023-01-29T21:22:25.831Z,-1.40
2023-01-29T21:24:53.632Z,-1.40
2023-01-29T21:27:21.393Z,-1.40
2023-01-29T21:29:49.285Z,-1.30
2023-01-29T21:32:18.144Z,-1.40
2023-01-29T21:34:45.931Z,-1.50
2023-01-29T21:37:15.204Z,-1.50
2023-01-29T21:39:42.974Z,-1.50
2023-01-29T21:42:28.364Z,-1.50
2023-01-29T21:44:56.238Z,-1.50
2023-01-29T21:47:24.100Z,-1.50
2023-01-29T21:49:51.955Z,-1.50
2023-01-29T21:52:21.091Z,-1.50
2023-01-29T21:54:49.439Z,-1.50
2023-01-29T21:57:18.007Z,-1.50
2023-01-29T21:59:47.033Z,-1.60
2023-01-29T22:02:20.849Z,-1.50
2023-01-29T22:04:50.148Z,-1.50
2023-01-29T22:07:17.999Z,-1.50
2023-01-29T22:09:47.213Z,-1.60
2023-01-29T22:12:15.051Z,-1.60
2023-01-29T22:14:43.234Z,-1.70
2023-01-29T22:17:11.294Z,-1.70
2023-01-29T22:19:39.149Z,-1.80
2023-01-29T22:22:07.730Z,-1.70
2023-01-29T22:24:35.559Z,-1.70
2023-01-29T22:27:04.839Z,-1.80
2023-01-29T22:29:32.592Z,-1.80
2023-01-29T22:32:00.452Z,-1.80
2023-01-29T22:34:28.235Z,-1.80
2023-01-29T22:36:56.056Z,-1.80
2023-01-29T22:39:23.949Z,-1.80
2023-01-29T22:41:51.816Z,-1.90
2023-01-29T22:44:21.005Z,-1.90
2023-01-29T22:46:49.475Z,-1.90
2023-01-29T22:49:17.283Z,-1.90
2023-01-29T22:51:45.037Z,-1.90
2023-01-29T22:54:12.814Z,-1.90
2023-01-29T22:56:40.583Z,-1.90
2023-01-29T22:59:08.384Z,-2.00
2023-01-29T23:01:37.547Z,-1.90
2023-01-29T23:04:05.345Z,-1.90
2023-01-29T23:06:33.081Z,-1.90
2023-01-29T23:09:00.891Z,-1.90
2023-01-29T23:11:28.821Z,-2.00
2023-01-29T23:13:56.765Z,-1.90
2023-01-29T23:16:27.945Z,-2.00
2023-01-29T23:18:57.642Z,-2.00
2023-01-29T23:21:27.719Z,-2.00
2023-01-29T23:23:58.184Z,-2.00
2023-01-29T23:26:43.582Z,-2.00
2023-01-29T23:29:11.693Z,-2.10
2023-01-29T23:31:39.967Z,-2.20
2023-01-29T23:34:09.235Z,-2.10
2023-01-29T23:36:37.571Z,-2.10
2023-01-29T23:39:06.099Z,-2.10
2023-01-29T23:41:33.974Z,-2.10
2023-01-29T23:44:01.799Z,-2.10
2023-01-29T23:46:29.718Z,-2.10
2023-01-29T23:48:57.550Z,-2.10
2023-01-29T23:51:26.960Z,-2.10
2023-01-29T23:53:55.008Z,-2.10
2023-01-29T23:56:22.809Z,-2.10
2023-01-29T23:58:53.944Z,-2.20
